KCPR/CPR METAR and TAF weather

Enter ICAO airport designator
Station Type Date Time Source
KCPR METAR 2019/08/21 21:53 UTC NOAA

KCPR 212153Z 10016G25KT 10SM FEW080 SCT100 29/11 A3005 RMK AO2 PK WND 09030/2138 LTG DSNT SE SLP111 T02890111


Station Type Date Time Source
KCPR Decoded METAR 2019/08/21 21:53 UTC NOAA

Station name not available
Aug 21, 2019 - 05:53 PM EDT / 2019.08.21 2153 UTC
Wind: from the E (100 degrees) at 18 MPH (16 KT) gusting to 29 MPH (25 KT):0
Visibility: 10 mile(s):0
Sky conditions: partly cloudy
Weather: Lightning observed
Temperature: 84.0 F (28.9 C)
Dew Point: 52.0 F (11.1 C)
Relative Humidity: 33%
Pressure (altimeter): 30.05 in. Hg (1017 hPa)
ob: KCPR 212153Z 10016G25KT 10SM FEW080 SCT100 29/11 A3005 RMK AO2 PK WND 09030/2138 LTG DSNT SE SLP111 T02890111
cycle: 22

Station Type Date Time Source
KCPR TAF 2019/08/21 18:24 UTC NOAA

TAF KCPR 211721Z 2118/2218 08007KT P6SM SKC
FM212300 09012G18KT P6SM VCTS BKN070CB BKN150
FM220300 10010KT P6SM BKN150
FM220900 VRB06KT P6SM FEW150
FM221500 18006KT P6SM SKC

Example: see airport list